Time;durP1;ratioP1;P1;durP2;ratioP2;P2;SDS_P1;SDS_P2;PMS_P1;PMS_P2;Temp;Humidity;BMP_temperature;BMP_pressure;BME280_temperature;BME280_humidity;BME280_pressure;Samples;Min_cycle;Max_cycle;Signal;HPM_P1;HPM_P2
2022/06/02 00:01:53;;;;;;;7.40;7.10;;;;;;;20.98;73.26;101094.25;5035488;28;20124;-59
2022/06/02 00:04:19;;;;;;;7.50;7.20;;;;;;;20.98;74.44;101093.41;5035525;28;20034;-59
2022/06/02 00:07:00;;;;;;;7.38;7.07;;;;;;;20.98;72.70;101093.41;5035467;28;20034;-59
2022/06/02 00:10:06;;;;;;;7.35;7.05;;;;;;;21.04;73.33;101089.97;5035291;28;20033;-58
2022/06/02 00:12:57;;;;;;;7.63;7.32;;;;;;;21.02;72.25;101092.03;5035609;28;20048;-59
2022/06/02 00:15:35;;;;;;;7.60;7.30;;;;;;;21.02;72.10;101083.81;5035262;28;20036;-61
2022/06/02 00:18:21;;;;;;;7.40;7.00;;;;;;;21.03;72.33;101085.53;5035456;28;20396;-58
2022/06/02 00:21:17;;;;;;;7.22;6.93;;;;;;;21.06;71.81;101084.31;5035661;28;20034;-59
2022/06/02 00:23:58;;;;;;;7.30;7.00;;;;;;;21.06;71.18;101090.63;5035092;28;20068;-59
2022/06/02 00:26:31;;;;;;;7.03;6.72;;;;;;;21.10;72.41;101081.00;5035041;28;20025;-59
2022/06/02 00:29:05;;;;;;;7.38;7.07;;;;;;;21.09;71.17;101084.78;5035143;28;20384;-59
2022/06/02 00:31:55;;;;;;;7.00;6.70;;;;;;;21.11;71.32;101077.25;5035238;28;20068;-59
2022/06/02 00:34:46;;;;;;;7.47;7.10;;;;;;;21.14;71.13;101081.47;5035281;28;20021;-59
2022/06/02 00:37:44;;;;;;;7.88;7.57;;;;;;;21.15;71.36;101078.56;5034822;28;20057;-58
2022/06/02 00:40:10;;;;;;;7.47;7.18;;;;;;;21.17;70.87;101064.75;5012666;28;20056;-59
2022/06/02 00:42:49;;;;;;;7.43;7.13;;;;;;;21.15;70.79;101067.63;5012491;28;20033;-59
2022/06/02 00:45:16;;;;;;;7.40;7.10;;;;;;;21.17;70.90;101065.59;4996145;28;20045;-59
2022/06/02 00:48:08;;;;;;;7.50;7.20;;;;;;;21.16;70.85;101061.13;5012540;28;20076;-58
2022/06/02 00:50:42;;;;;;;7.13;6.82;;;;;;;21.15;71.41;101048.50;5012844;28;20034;-59
2022/06/02 00:53:42;;;;;;;7.40;7.10;;;;;;;21.17;70.73;101043.72;5012578;28;20036;-60
2022/06/02 00:59:49;;;;;;;7.45;7.15;;;;;;;21.16;70.43;101039.25;5012390;28;20088;-59
2022/06/02 01:02:16;;;;;;;7.07;6.78;;;;;;;21.17;71.00;101042.88;5012329;28;20032;-59
2022/06/02 01:04:43;;;;;;;7.25;6.95;;;;;;;21.18;70.81;101039.94;5012261;28;20049;-59
2022/06/02 01:07:30;;;;;;;7.50;7.20;;;;;;;21.18;69.74;101039.94;5012410;28;20045;-60
2022/06/02 01:10:22;;;;;;;7.20;6.90;;;;;;;21.21;70.31;101038.72;5012132;28;20045;-59
2022/06/02 01:12:56;;;;;;;7.35;7.05;;;;;;;21.20;69.47;101039.75;5012057;28;20073;-59
2022/06/02 01:15:48;;;;;;;7.40;7.10;;;;;;;21.17;69.94;101032.78;5012051;28;20581;-60
2022/06/02 01:18:44;;;;;;;7.53;7.22;;;;;;;21.17;69.45;101027.31;5034169;28;20473;-60
2022/06/02 01:21:31;;;;;;;7.60;7.30;;;;;;;21.19;69.67;101027.97;5011907;28;20450;-60
2022/06/02 01:24:18;;;;;;;7.70;7.40;;;;;;;21.21;69.87;101028.63;5012555;28;20041;-59
2022/06/02 01:27:08;;;;;;;7.50;7.20;;;;;;;21.18;69.83;101026.28;5011830;28;20037;-60
2022/06/02 01:29:33;;;;;;;7.43;7.13;;;;;;;21.19;69.77;101018.91;5011554;28;20068;-59
2022/06/02 01:32:02;;;;;;;7.50;7.20;;;;;;;21.18;70.27;101012.59;5011789;28;20095;-59
2022/06/02 01:34:47;;;;;;;7.55;7.25;;;;;;;21.18;70.05;101007.13;5011459;28;20040;-59
2022/06/02 01:37:49;;;;;;;7.70;7.40;;;;;;;21.21;70.36;101000.44;5011616;28;20053;-59
2022/06/02 01:40:27;;;;;;;7.18;6.88;;;;;;;21.21;70.33;100995.81;5011870;28;20030;-60
2022/06/02 01:43:13;;;;;;;7.13;6.82;;;;;;;21.20;69.69;100993.28;5011567;28;20030;-60
2022/06/02 01:45:51;;;;;;;7.30;7.00;;;;;;;21.24;71.48;100984.53;5011390;28;20100;-59
2022/06/02 01:48:36;;;;;;;7.53;7.22;;;;;;;21.24;70.50;100973.59;5010841;28;20042;-60
2022/06/02 01:51:04;;;;;;;7.50;7.20;;;;;;;21.23;70.81;100976.50;5011500;28;20041;-59
2022/06/02 01:53:53;;;;;;;7.80;7.50;;;;;;;21.23;70.30;100971.88;5011197;28;20030;-59
2022/06/02 01:57:03;;;;;;;7.20;6.90;;;;;;;21.23;70.10;100971.88;5011362;28;20105;-59
2022/06/02 01:59:50;;;;;;;7.30;7.00;;;;;;;21.22;70.76;100958.41;4933555;29;20035;-59
2022/06/02 02:02:25;;;;;;;7.50;7.20;;;;;;;21.23;70.99;100960.09;4933781;29;20028;-59
2022/06/02 02:05:02;;;;;;;;;;;;;;;21.22;70.52;100952.94;4934234;29;20040;-59
2022/06/02 02:08:00;;;;;;;7.28;6.97;;;;;;;21.24;70.61;100957.19;4933507;29;19911;-59
2022/06/02 02:10:50;;;;;;;7.30;7.00;;;;;;;21.23;70.69;100950.00;4933504;29;20483;-60
2022/06/02 02:13:39;;;;;;;7.50;7.20;;;;;;;21.24;70.93;100954.47;4933718;29;20027;-60
2022/06/02 02:16:37;;;;;;;7.18;6.88;;;;;;;21.27;71.85;100945.03;4933518;29;20087;-59
2022/06/02 02:19:23;;;;;;;7.15;6.85;;;;;;;21.27;71.61;100940.41;4917644;29;20175;-59
2022/06/02 02:22:10;;;;;;;7.68;7.38;;;;;;;21.26;71.87;100933.25;4917364;29;20048;-59
2022/06/02 02:25:06;;;;;;;7.30;7.00;;;;;;;21.28;72.08;100942.09;4933370;29;20028;-59
2022/06/02 02:28:04;;;;;;;7.68;7.38;;;;;;;21.27;71.82;100934.09;4933298;29;20024;-59
2022/06/02 02:30:50;;;;;;;7.30;7.00;;;;;;;21.25;71.59;100931.56;4933350;29;20042;-59
2022/06/02 02:33:37;;;;;;;7.20;6.90;;;;;;;21.26;71.45;100929.66;4933289;29;20024;-60
2022/06/02 02:36:41;;;;;;;7.30;7.00;;;;;;;21.24;71.73;100929.84;4977511;28;20531;-59
2022/06/02 02:39:25;;;;;;;7.18;6.88;;;;;;;21.22;72.07;100936.53;5032756;28;20041;-59
2022/06/02 02:42:07;;;;;;;7.50;7.10;;;;;;;21.22;70.87;100920.97;5032850;28;20029;-58
2022/06/02 02:44:49;;;;;;;7.95;7.65;;;;;;;21.22;70.99;100912.75;5032605;28;20021;-59
2022/06/02 02:47:22;;;;;;;7.68;7.38;;;;;;;21.23;71.11;100922.66;5032626;28;20030;-60
2022/06/02 02:49:54;;;;;;;7.60;7.30;;;;;;;21.19;70.32;100924.06;5032735;28;20067;-59
2022/06/02 02:52:26;;;;;;;7.50;7.20;;;;;;;21.22;70.95;100920.13;5032492;28;20271;-59
2022/06/02 02:55:01;;;;;;;7.40;7.10;;;;;;;21.22;70.40;100907.28;5032861;28;20385;-60
2022/06/02 02:57:36;;;;;;;7.20;6.90;;;;;;;21.20;69.69;100901.16;5032231;28;20100;-60
2022/06/02 03:00:15;;;;;;;7.07;6.78;;;;;;;21.18;70.47;100903.25;5032525;28;20021;-59
2022/06/02 03:02:51;;;;;;;7.35;7.05;;;;;;;21.21;70.18;100899.28;5032515;28;20021;-60
2022/06/02 03:05:32;;;;;;;7.05;6.75;;;;;;;21.14;70.40;100896.44;5032437;28;20412;-59
2022/06/02 03:08:09;;;;;;;7.10;6.80;;;;;;;21.18;70.69;100895.03;5032399;28;20025;-59
2022/06/02 03:10:38;;;;;;;7.40;7.10;;;;;;;21.17;70.14;100885.16;5032485;28;20024;-59
2022/06/02 03:13:11;;;;;;;7.43;7.13;;;;;;;21.20;70.83;100878.44;5032443;28;20022;-59
2022/06/02 03:15:44;;;;;;;7.18;6.85;;;;;;;21.23;71.00;100883.53;5032256;28;20025;-59
2022/06/02 03:18:49;;;;;;;7.75;7.40;;;;;;;21.21;70.69;100883.72;5032445;28;20384;-59
2022/06/02 03:21:21;;;;;;;7.63;7.22;;;;;;;21.20;70.79;100879.28;5009969;28;20549;-60
2022/06/02 03:23:56;;;;;;;7.40;7.10;;;;;;;21.22;71.15;100871.75;5010158;28;20205;-59
2022/06/02 03:26:36;;;;;;;7.40;7.10;;;;;;;21.22;71.17;100882.69;5009999;28;20076;-59
2022/06/02 03:29:22;;;;;;;7.40;7.10;;;;;;;21.21;70.04;100872.78;5010134;28;20485;-59
2022/06/02 03:32:13;;;;;;;6.90;6.60;;;;;;;21.21;70.85;100870.06;5010085;28;20576;-59
2022/06/02 03:34:44;;;;;;;7.00;6.70;;;;;;;21.21;70.39;100878.25;5009941;28;20442;-59
2022/06/02 03:37:44;;;;;;;7.30;7.00;;;;;;;21.20;70.64;100868.34;5010278;28;20025;-59
2022/06/02 03:40:24;;;;;;;7.65;7.35;;;;;;;21.21;70.49;100871.94;4913465;29;20123;-59
2022/06/02 03:43:12;;;;;;;6.97;6.68;;;;;;;21.22;71.00;100879.94;4913719;29;20110;-59
2022/06/02 03:45:56;;;;;;;6.75;6.45;;;;;;;21.22;71.50;100866.28;4913369;29;20047;-59
2022/06/02 03:48:40;;;;;;;7.10;6.80;;;;;;;21.23;70.44;100867.97;4913360;29;20043;-60
2022/06/02 03:51:11;;;;;;;7.75;7.45;;;;;;;21.23;70.78;100857.03;4913526;29;20115;-59
2022/06/02 03:53:39;;;;;;;6.90;6.60;;;;;;;21.24;71.79;100858.75;4913404;29;20051;-59
2022/06/02 03:56:20;;;;;;;7.55;7.25;;;;;;;21.22;70.88;100860.81;4897569;29;20035;-59
2022/06/02 03:59:04;;;;;;;6.95;6.65;;;;;;;21.24;71.32;100853.31;4928335;29;20042;-59
2022/06/02 04:01:37;;;;;;;9.40;9.00;;;;;;;21.25;71.01;100859.63;4932237;29;20028;-59
2022/06/02 04:04:11;;;;;;;0.10;0.10;;;;;;;21.75;70.31;100850.56;4932624;29;20058;-59
2022/06/02 04:07:08;;;;;;;0.20;0.20;;;;;;;22.03;69.19;100852.53;4932354;29;20031;-59
2022/06/02 04:09:53;;;;;;;0.20;0.20;;;;;;;22.28;68.51;100853.84;4932162;29;20087;-60
2022/06/02 04:16:08;;;;;;;0.20;0.20;;;;;;;22.64;68.12;100823.56;4940961;28;20494;-59
2022/06/02 04:18:52;;;;;;;0.20;0.20;;;;;;;22.79;67.07;100832.53;5035577;28;20033;-60
2022/06/02 04:21:36;;;;;;;0.10;0.10;;;;;;;22.92;67.76;100823.59;5035321;28;20033;-59
2022/06/02 04:24:18;;;;;;;;;;;;;;;22.98;66.73;100825.50;5035773;28;20543;-59
2022/06/02 04:26:51;;;;;;;0.57;0.20;;;;;;;23.10;66.47;100818.41;5035459;28;19921;-59
2022/06/02 04:29:31;;;;;;;1.00;0.25;;;;;;;23.17;67.11;100817.59;5035178;28;20104;-59
2022/06/02 04:32:24;;;;;;;0.20;0.10;;;;;;;23.25;67.13;100820.19;5035166;28;20053;-59
2022/06/02 04:35:15;;;;;;;0.10;0.10;;;;;;;23.33;67.63;100817.25;5035446;28;20056;-59
2022/06/02 04:37:45;;;;;;;0.20;0.10;;;;;;;23.40;67.41;100818.97;5035005;28;20100;-59
2022/06/02 04:40:47;;;;;;;0.25;0.15;;;;;;;23.42;67.49;100818.78;5035022;28;20065;-59
2022/06/02 04:43:19;;;;;;;0.30;0.10;;;;;;;23.44;68.00;100819.41;5034951;28;20053;-60
2022/06/02 04:46:12;;;;;;;0.35;0.10;;;;;;;23.49;68.22;100816.88;5034807;28;20025;-60
2022/06/02 04:48:46;;;;;;;0.10;0.10;;;;;;;23.54;67.70;100808.91;5034646;28;20476;-59
2022/06/02 04:51:16;;;;;;;;;;;;;;;23.50;67.31;100815.81;5035244;28;20041;-59
2022/06/02 04:53:59;;;;;;;0.10;0.10;;;;;;;23.52;67.62;100805.53;5036015;28;19916;-59
2022/06/02 04:56:58;;;;;;;0.10;0.10;;;;;;;23.54;66.46;100814.38;5034617;28;20678;-59
2022/06/02 04:59:59;;;;;;;0.10;0.10;;;;;;;23.54;66.33;100808.91;5034495;28;20527;-60
2022/06/02 05:02:43;;;;;;;0.00;0.00;;;;;;;23.55;65.23;100805.09;5033167;28;20088;-59
2022/06/02 05:05:17;;;;;;;0.10;0.10;;;;;;;23.39;67.98;100810.97;5034566;28;20029;-59
2022/06/02 05:08:01;;;;;;;0.32;0.20;;;;;;;22.79;68.70;100809.78;5034438;28;20034;-59
2022/06/02 05:10:51;;;;;;;0.00;0.00;;;;;;;22.45;67.29;100803.22;5033077;28;20025;-58
2022/06/02 05:13:28;;;;;;;0.10;0.10;;;;;;;22.37;66.91;100806.13;5034399;28;20037;-59
2022/06/02 05:16:13;;;;;;;0.30;0.10;;;;;;;22.29;64.97;100800.78;5034544;28;20029;-59
2022/06/02 05:19:01;;;;;;;0.10;0.00;;;;;;;22.02;63.52;100810.63;5034117;28;20025;-59
2022/06/02 05:22:04;;;;;;;0.10;0.10;;;;;;;22.02;62.96;100796.09;5031799;28;20022;-59
2022/06/02 05:25:00;;;;;;;0.40;0.10;;;;;;;21.83;61.81;100803.91;5034001;28;20038;-59
2022/06/02 05:27:42;;;;;;;0.10;0.10;;;;;;;21.69;62.45;100801.25;5033910;28;20025;-59
2022/06/02 05:30:13;;;;;;;0.70;0.20;;;;;;;21.68;60.72;100803.13;5034209;28;20025;-59
2022/06/02 05:33:03;;;;;;;0.40;0.30;;;;;;;21.59;62.56;100802.38;5034138;28;20552;-59
2022/06/02 05:35:49;;;;;;;0.30;0.15;;;;;;;21.51;61.88;100796.22;5033727;28;20029;-59
2022/06/02 05:38:44;;;;;;;0.17;0.00;;;;;;;21.52;63.22;100800.63;5034244;28;20025;-59
2022/06/02 05:41:40;;;;;;;0.32;0.10;;;;;;;21.48;63.16;100793.84;5033886;28;20057;-59
2022/06/02 05:44:21;;;;;;;0.65;0.10;;;;;;;21.41;62.05;100790.19;5033799;28;20381;-59
2022/06/02 05:47:23;;;;;;;0.65;0.20;;;;;;;21.42;61.40;100784.53;5033743;28;20100;-59
2022/06/02 05:50:25;;;;;;;1.17;0.10;;;;;;;21.37;61.55;100788.88;5033688;28;20124;-59
2022/06/02 05:53:00;;;;;;;0.45;0.20;;;;;;;21.49;63.42;100779.13;5033671;28;20148;-59
2022/06/02 05:56:20;;;;;;;0.38;0.10;;;;;;;21.47;64.64;100775.72;5033463;28;20036;-59
2022/06/02 05:59:18;;;;;;;0.10;0.10;;;;;;;21.42;63.25;100778.22;5011354;28;20430;-59
2022/06/02 06:02:17;;;;;;;0.10;0.10;;;;;;;21.48;62.62;100777.44;5011277;28;20030;-59
2022/06/02 06:05:07;;;;;;;0.32;0.10;;;;;;;21.54;61.00;100780.25;5011443;28;20069;-59
2022/06/02 06:07:59;;;;;;;0.10;0.10;;;;;;;21.52;61.75;100776.03;5011058;28;20228;-58
2022/06/02 06:10:49;;;;;;;0.20;0.20;;;;;;;21.58;64.23;100777.97;5010941;28;20033;-59
2022/06/02 06:13:41;;;;;;;0.10;0.05;;;;;;;21.43;61.84;100769.81;5011137;28;20064;-59
2022/06/02 06:16:30;;;;;;;0.52;0.40;;;;;;;21.45;62.70;100775.09;5010985;28;20080;-59
2022/06/02 06:19:47;;;;;;;0.10;0.10;;;;;;;21.51;62.66;100779.78;5011029;28;20252;-58
2022/06/02 06:22:36;;;;;;;0.10;0.10;;;;;;;21.52;62.35;100785.06;4914430;29;20048;-59
2022/06/02 06:25:35;;;;;;;0.10;0.10;;;;;;;21.59;61.83;100782.41;4914476;29;20078;-58
2022/06/02 06:28:10;;;;;;;0.98;0.13;;;;;;;21.59;61.23;100779.66;4898904;29;20024;-59
2022/06/02 06:31:15;;;;;;;0.05;0.03;;;;;;;21.61;61.71;100786.63;4933230;29;20032;-59
2022/06/02 06:34:13;;;;;;;0.30;0.17;;;;;;;21.63;62.22;100778.22;4932959;29;20186;-59
2022/06/02 06:36:44;;;;;;;0.20;0.10;;;;;;;21.66;61.56;100772.34;4932953;29;20496;-59
2022/06/02 06:39:14;;;;;;;0.10;0.00;;;;;;;21.74;64.00;100776.88;4933425;29;20043;-58
2022/06/02 06:42:03;;;;;;;0.25;0.00;;;;;;;21.69;63.55;100777.47;4933069;29;20111;-59
2022/06/02 06:44:37;;;;;;;0.35;0.10;;;;;;;21.64;62.10;100774.44;4932994;29;20043;-59
2022/06/02 06:47:19;;;;;;;0.15;0.10;;;;;;;21.69;62.98;100774.72;4933161;29;20535;-59
2022/06/02 06:50:18;;;;;;;0.20;0.20;;;;;;;21.67;63.42;100776.81;4933074;29;20032;-59
2022/06/02 06:53:27;;;;;;;0.00;0.00;;;;;;;21.72;64.03;100779.81;4933002;29;20078;-59
2022/06/02 06:56:04;;;;;;;0.20;0.00;;;;;;;21.68;64.24;100778.50;4932958;29;20103;-59
2022/06/02 06:58:35;;;;;;;0.10;0.10;;;;;;;21.67;64.10;100782.28;4962358;28;20043;-59
2022/06/02 07:01:25;;;;;;;0.20;0.08;;;;;;;21.83;63.41;100783.88;4971458;28;20038;-58
2022/06/02 07:04:12;;;;;;;0.10;0.10;;;;;;;21.64;64.87;100771.72;4971433;28;20506;-59
2022/06/02 07:06:37;;;;;;;0.73;0.10;;;;;;;21.65;62.92;100767.94;4971146;28;20047;-58
2022/06/02 07:09:14;;;;;;;1.40;0.20;;;;;;;21.62;62.45;100782.84;4971672;28;20364;-59
2022/06/02 07:15:17;;;;;;;0.20;0.10;;;;;;;21.60;63.06;100776.72;5010300;28;20040;-59
2022/06/02 07:18:03;;;;;;;0.17;0.10;;;;;;;21.48;62.64;100774.69;5010031;28;20030;-58
2022/06/02 07:20:37;;;;;;;0.17;0.10;;;;;;;21.62;62.25;100784.75;5010014;28;20033;-59
2022/06/02 07:23:24;;;;;;;0.20;0.20;;;;;;;21.59;62.54;100779.66;5010083;28;20052;-59
2022/06/02 07:26:19;;;;;;;0.20;0.10;;;;;;;21.77;61.76;100787.41;5010050;28;20077;-59
2022/06/02 07:28:51;;;;;;;;;;;;;;;21.69;60.76;100784.81;4914017;29;20043;-59
2022/06/02 07:31:45;;;;;;;0.10;0.10;;;;;;;21.59;61.65;100791.44;4913633;29;19911;-58
2022/06/02 07:34:36;;;;;;;0.10;0.10;;;;;;;21.73;62.09;100797.91;4913631;29;20044;-58
2022/06/02 07:37:38;;;;;;;0.10;0.10;;;;;;;21.58;61.49;100788.91;4898340;29;20040;-59
2022/06/02 07:40:30;;;;;;;0.28;0.10;;;;;;;21.60;63.07;100775.88;4896030;29;20051;-59
2022/06/02 07:43:16;;;;;;;0.43;0.20;;;;;;;21.75;63.38;100784.88;4893248;29;20032;-58
2022/06/02 07:45:53;;;;;;;0.20;0.20;;;;;;;21.68;63.59;100783.97;4894014;29;20561;-62
2022/06/02 07:48:43;;;;;;;1.95;1.10;;;;;;;21.55;63.90;100792.03;4902603;29;20156;-60
2022/06/02 07:51:23;;;;;;;20.20;13.25;;;;;;;21.82;63.99;100791.25;4910135;29;20047;-62
2022/06/02 07:54:00;;;;;;;16.75;11.35;;;;;;;21.66;64.83;100785.19;4935189;29;20062;-61
2022/06/02 07:56:49;;;;;;;139.57;87.13;;;;;;;21.83;64.18;100787.47;4932588;29;20075;-61
2022/06/02 07:59:38;;;;;;;424.55;319.45;;;;;;;22.09;65.06;100791.53;4933617;29;20084;-62
2022/06/02 08:02:24;;;;;;;321.35;230.93;;;;;;;22.04;65.39;100783.06;4929401;29;20032;-61
2022/06/02 08:05:08;;;;;;;325.55;239.73;;;;;;;21.75;66.48;100790.34;4944889;28;20075;-62
2022/06/02 08:07:52;;;;;;;435.42;320.63;;;;;;;22.01;66.09;100805.34;5035310;28;20024;-61
2022/06/02 08:10:46;;;;;;;346.17;253.98;;;;;;;21.86;66.40;100798.06;5040221;28;20033;-61
2022/06/02 08:13:17;;;;;;;273.15;197.45;;;;;;;21.85;65.14;100795.50;5028869;28;20053;-62
2022/06/02 08:16:02;;;;;;;215.63;154.57;;;;;;;21.83;65.17;100792.09;5035452;28;20048;-61
2022/06/02 08:18:35;;;;;;;165.38;120.80;;;;;;;21.69;63.69;100804.81;5041288;28;20460;-63
2022/06/02 08:21:16;;;;;;;137.88;102.82;;;;;;;21.76;62.47;100810.34;5041005;28;20045;-63
2022/06/02 08:24:07;;;;;;;232.23;150.32;;;;;;;21.77;63.15;100803.84;5041665;28;20099;-62
2022/06/02 08:30:20;;;;;;;37.50;24.85;;;;;;;21.97;53.17;100820.44;5077679;28;20393;-35
2022/06/02 08:33:22;;;;;;;40.17;26.42;;;;;;;21.39;55.35;100827.81;5078620;28;20032;-35
2022/06/02 08:36:12;;;;;;;48.90;29.52;;;;;;;21.29;55.11;100834.44;5069066;28;20440;-34
2022/06/02 08:38:55;;;;;;;55.08;36.50;;;;;;;21.28;55.09;100832.72;5068875;28;20020;-33
2022/06/02 08:41:38;;;;;;;62.65;41.00;;;;;;;21.27;55.75;100833.78;5077073;28;20039;-34
2022/06/02 08:44:40;;;;;;;80.28;49.28;;;;;;;21.20;55.60;100830.09;5077983;28;20107;-34
2022/06/02 08:47:41;;;;;;;77.47;49.20;;;;;;;21.19;56.28;100828.41;5079057;28;20031;-34
2022/06/02 08:50:29;;;;;;;76.57;50.10;;;;;;;21.17;55.68;100838.66;5085512;28;20028;-33
2022/06/02 08:53:16;;;;;;;82.65;51.85;;;;;;;21.15;55.69;100838.00;5085563;28;20040;-33
2022/06/02 08:56:29;;;;;;;79.97;51.25;;;;;;;21.21;56.13;100839.97;5080733;28;20074;-34
2022/06/02 08:59:29;;;;;;;76.65;50.55;;;;;;;21.44;57.16;100849.97;5014525;28;20045;-34
2022/06/02 09:02:03;;;;;;;73.38;48.00;;;;;;;21.40;57.50;100849.50;4988215;28;20038;-35
2022/06/02 09:05:13;;;;;;;70.72;45.95;;;;;;;21.47;57.57;100846.84;4986046;28;20356;-37
2022/06/02 09:08:10;;;;;;;67.88;46.03;;;;;;;21.42;57.30;100863.00;4996033;28;20046;-35
2022/06/02 09:10:51;;;;;;;60.30;42.63;;;;;;;21.39;57.41;100860.63;4996568;28;20053;-35
2022/06/02 09:13:40;;;;;;;56.55;39.55;;;;;;;21.32;57.11;100853.19;4997542;28;20121;-34
2022/06/02 09:16:30;;;;;;;55.67;37.25;;;;;;;21.29;56.77;100861.78;4994485;28;20042;-36
2022/06/02 09:19:14;;;;;;;52.75;35.78;;;;;;;21.28;56.42;100864.69;4989424;28;20040;-35
2022/06/02 09:22:18;;;;;;;48.33;32.03;;;;;;;21.32;55.73;100864.13;4992582;28;20052;-35
2022/06/02 09:24:51;;;;;;;40.78;28.98;;;;;;;21.21;55.70;100861.84;4931862;28;20032;-36
2022/06/02 09:27:37;;;;;;;39.47;27.65;;;;;;;21.20;54.91;100860.16;4911293;29;20047;-36
2022/06/02 09:30:07;;;;;;;35.90;26.63;;;;;;;21.17;55.65;100867.91;4922023;29;20047;-35
2022/06/02 09:32:56;;;;;;;31.85;22.55;;;;;;;21.34;54.73;100871.31;4927512;28;20045;-35
2022/06/02 09:35:41;;;;;;;29.42;21.95;;;;;;;21.23;54.24;100873.44;4948594;28;20049;-35
2022/06/02 09:38:44;;;;;;;28.08;20.75;;;;;;;21.32;53.82;100879.69;4950262;28;20081;-35
